sensor_id;sensor_type;location;lat;lon;timestamp;P1;durP1;ratioP1;P2;durP2;ratioP2
12519;SDS011;6325;49.540;8.364;2022-12-10T00:01:25;12.85;;;11.55;;
12519;SDS011;6325;49.540;8.364;2022-12-10T00:03:53;13.13;;;11.82;;
12519;SDS011;6325;49.540;8.364;2022-12-10T00:06:22;12.30;;;11.00;;
12519;SDS011;6325;49.540;8.364;2022-12-10T00:08:50;12.20;;;11.00;;
12519;SDS011;6325;49.540;8.364;2022-12-10T00:11:18;12.10;;;11.00;;
12519;SDS011;6325;49.540;8.364;2022-12-10T00:13:46;12.43;;;11.23;;
12519;SDS011;6325;49.540;8.364;2022-12-10T00:16:16;12.13;;;10.93;;
12519;SDS011;6325;49.540;8.364;2022-12-10T00:18:45;12.48;;;11.27;;
12519;SDS011;6325;49.540;8.364;2022-12-10T00:21:14;12.40;;;11.20;;
12519;SDS011;6325;49.540;8.364;2022-12-10T00:23:45;11.80;;;10.70;;
12519;SDS011;6325;49.540;8.364;2022-12-10T00:26:14;12.82;;;11.52;;
12519;SDS011;6325;49.540;8.364;2022-12-10T00:28:42;11.60;;;10.50;;
12519;SDS011;6325;49.540;8.364;2022-12-10T00:31:10;11.48;;;10.43;;
12519;SDS011;6325;49.540;8.364;2022-12-10T00:33:40;14.15;;;12.73;;
12519;SDS011;6325;49.540;8.364;2022-12-10T00:36:09;11.25;;;10.15;;
12519;SDS011;6325;49.540;8.364;2022-12-10T00:38:38;12.13;;;10.93;;
12519;SDS011;6325;49.540;8.364;2022-12-10T00:41:06;11.90;;;10.80;;
12519;SDS011;6325;49.540;8.364;2022-12-10T00:43:33;11.43;;;10.33;;
12519;SDS011;6325;49.540;8.364;2022-12-10T00:46:01;12.30;;;11.10;;
12519;SDS011;6325;49.540;8.364;2022-12-10T00:48:29;11.32;;;10.23;;
12519;SDS011;6325;49.540;8.364;2022-12-10T00:50:58;11.43;;;10.32;;
12519;SDS011;6325;49.540;8.364;2022-12-10T00:53:27;11.80;;;10.65;;
12519;SDS011;6325;49.540;8.364;2022-12-10T00:55:56;12.45;;;11.25;;
12519;SDS011;6325;49.540;8.364;2022-12-10T00:58:23;11.73;;;10.52;;
12519;SDS011;6325;49.540;8.364;2022-12-10T01:00:54;13.40;;;12.02;;
12519;SDS011;6325;49.540;8.364;2022-12-10T01:03:31;12.80;;;11.60;;
12519;SDS011;6325;49.540;8.364;2022-12-10T01:06:07;13.80;;;12.40;;
12519;SDS011;6325;49.540;8.364;2022-12-10T01:08:36;13.20;;;11.90;;
12519;SDS011;6325;49.540;8.364;2022-12-10T01:11:03;13.27;;;11.97;;
12519;SDS011;6325;49.540;8.364;2022-12-10T01:13:30;12.98;;;11.73;;
12519;SDS011;6325;49.540;8.364;2022-12-10T01:15:59;12.17;;;10.97;;
12519;SDS011;6325;49.540;8.364;2022-12-10T01:18:27;13.18;;;11.88;;
12519;SDS011;6325;49.540;8.364;2022-12-10T01:20:54;12.57;;;11.38;;
12519;SDS011;6325;49.540;8.364;2022-12-10T01:23:23;12.60;;;11.40;;
12519;SDS011;6325;49.540;8.364;2022-12-10T01:25:50;13.20;;;11.90;;
12519;SDS011;6325;49.540;8.364;2022-12-10T01:28:17;13.10;;;11.88;;
12519;SDS011;6325;49.540;8.364;2022-12-10T01:30:46;13.30;;;12.00;;
12519;SDS011;6325;49.540;8.364;2022-12-10T01:33:13;12.60;;;11.38;;
12519;SDS011;6325;49.540;8.364;2022-12-10T01:35:40;12.60;;;11.40;;
12519;SDS011;6325;49.540;8.364;2022-12-10T01:38:07;12.45;;;11.25;;
12519;SDS011;6325;49.540;8.364;2022-12-10T01:40:37;13.00;;;11.75;;
12519;SDS011;6325;49.540;8.364;2022-12-10T01:43:04;11.82;;;10.65;;
12519;SDS011;6325;49.540;8.364;2022-12-10T01:45:31;13.85;;;12.50;;
12519;SDS011;6325;49.540;8.364;2022-12-10T01:48:00;14.20;;;12.77;;
12519;SDS011;6325;49.540;8.364;2022-12-10T01:50:27;12.95;;;11.65;;
12519;SDS011;6325;49.540;8.364;2022-12-10T01:52:54;14.35;;;12.93;;
12519;SDS011;6325;49.540;8.364;2022-12-10T01:55:40;13.00;;;11.73;;
12519;SDS011;6325;49.540;8.364;2022-12-10T01:58:12;13.63;;;12.23;;
12519;SDS011;6325;49.540;8.364;2022-12-10T02:00:43;13.98;;;12.57;;
12519;SDS011;6325;49.540;8.364;2022-12-10T02:03:32;12.70;;;11.50;;
12519;SDS011;6325;49.540;8.364;2022-12-10T02:06:06;13.40;;;12.00;;
12519;SDS011;6325;49.540;8.364;2022-12-10T02:08:44;14.93;;;13.32;;
12519;SDS011;6325;49.540;8.364;2022-12-10T02:11:20;14.17;;;12.77;;
12519;SDS011;6325;49.540;8.364;2022-12-10T02:13:52;14.65;;;13.15;;
12519;SDS011;6325;49.540;8.364;2022-12-10T02:16:26;12.55;;;11.35;;
12519;SDS011;6325;49.540;8.364;2022-12-10T02:19:01;14.90;;;13.40;;
12519;SDS011;6325;49.540;8.364;2022-12-10T02:21:40;14.17;;;12.73;;
12519;SDS011;6325;49.540;8.364;2022-12-10T02:24:10;13.35;;;12.05;;
12519;SDS011;6325;49.540;8.364;2022-12-10T02:26:43;13.30;;;12.00;;
12519;SDS011;6325;49.540;8.364;2022-12-10T02:29:17;14.82;;;13.23;;
12519;SDS011;6325;49.540;8.364;2022-12-10T02:31:48;13.57;;;12.27;;
12519;SDS011;6325;49.540;8.364;2022-12-10T02:34:18;15.70;;;14.13;;
12519;SDS011;6325;49.540;8.364;2022-12-10T02:36:48;14.48;;;13.05;;
12519;SDS011;6325;49.540;8.364;2022-12-10T02:39:18;13.85;;;12.45;;
12519;SDS011;6325;49.540;8.364;2022-12-10T02:41:51;13.85;;;12.45;;
12519;SDS011;6325;49.540;8.364;2022-12-10T02:44:22;14.35;;;12.93;;
12519;SDS011;6325;49.540;8.364;2022-12-10T02:46:52;14.27;;;12.88;;
12519;SDS011;6325;49.540;8.364;2022-12-10T02:49:21;15.88;;;14.27;;
12519;SDS011;6325;49.540;8.364;2022-12-10T02:51:51;13.83;;;12.50;;
12519;SDS011;6325;49.540;8.364;2022-12-10T02:54:35;13.02;;;11.73;;
12519;SDS011;6325;49.540;8.364;2022-12-10T02:57:07;14.18;;;12.75;;
12519;SDS011;6325;49.540;8.364;2022-12-10T02:59:58;14.95;;;13.40;;
12519;SDS011;6325;49.540;8.364;2022-12-10T03:02:32;14.82;;;13.30;;
12519;SDS011;6325;49.540;8.364;2022-12-10T03:05:09;14.57;;;13.07;;
12519;SDS011;6325;49.540;8.364;2022-12-10T03:07:41;13.48;;;12.07;;
12519;SDS011;6325;49.540;8.364;2022-12-10T03:10:16;14.75;;;13.25;;
12519;SDS011;6325;49.540;8.364;2022-12-10T03:12:48;13.95;;;12.55;;
12519;SDS011;6325;49.540;8.364;2022-12-10T03:15:20;14.55;;;13.15;;
12519;SDS011;6325;49.540;8.364;2022-12-10T03:17:50;14.18;;;12.68;;
12519;SDS011;6325;49.540;8.364;2022-12-10T03:20:18;15.20;;;13.60;;
12519;SDS011;6325;49.540;8.364;2022-12-10T03:22:45;14.05;;;12.65;;
12519;SDS011;6325;49.540;8.364;2022-12-10T03:25:15;15.10;;;13.40;;
12519;SDS011;6325;49.540;8.364;2022-12-10T03:27:46;13.50;;;12.10;;
12519;SDS011;6325;49.540;8.364;2022-12-10T03:30:15;13.07;;;11.77;;
12519;SDS011;6325;49.540;8.364;2022-12-10T03:32:44;14.50;;;13.05;;
12519;SDS011;6325;49.540;8.364;2022-12-10T03:35:12;14.48;;;12.98;;
12519;SDS011;6325;49.540;8.364;2022-12-10T03:37:40;13.85;;;12.45;;
12519;SDS011;6325;49.540;8.364;2022-12-10T03:40:08;13.18;;;11.88;;
12519;SDS011;6325;49.540;8.364;2022-12-10T03:42:36;13.65;;;12.30;;
12519;SDS011;6325;49.540;8.364;2022-12-10T03:45:06;14.10;;;12.65;;
12519;SDS011;6325;49.540;8.364;2022-12-10T03:47:33;13.90;;;12.50;;
12519;SDS011;6325;49.540;8.364;2022-12-10T03:50:02;13.95;;;12.55;;
12519;SDS011;6325;49.540;8.364;2022-12-10T03:52:29;12.85;;;11.55;;
12519;SDS011;6325;49.540;8.364;2022-12-10T03:54:56;13.73;;;12.32;;
12519;SDS011;6325;49.540;8.364;2022-12-10T03:57:23;13.93;;;12.43;;
12519;SDS011;6325;49.540;8.364;2022-12-10T03:59:50;13.33;;;11.97;;
12519;SDS011;6325;49.540;8.364;2022-12-10T04:02:17;12.68;;;11.38;;
12519;SDS011;6325;49.540;8.364;2022-12-10T04:04:44;12.98;;;11.68;;
12519;SDS011;6325;49.540;8.364;2022-12-10T04:07:12;13.13;;;11.82;;
12519;SDS011;6325;49.540;8.364;2022-12-10T04:09:39;13.23;;;11.82;;
12519;SDS011;6325;49.540;8.364;2022-12-10T04:12:06;12.20;;;11.00;;
12519;SDS011;6325;49.540;8.364;2022-12-10T04:14:33;13.25;;;11.85;;
12519;SDS011;6325;49.540;8.364;2022-12-10T04:17:19;12.02;;;10.77;;
12519;SDS011;6325;49.540;8.364;2022-12-10T04:19:46;12.82;;;11.52;;
12519;SDS011;6325;49.540;8.364;2022-12-10T04:22:14;12.57;;;11.27;;
12519;SDS011;6325;49.540;8.364;2022-12-10T04:24:58;12.80;;;11.50;;
12519;SDS011;6325;49.540;8.364;2022-12-10T04:27:43;13.23;;;11.93;;
12519;SDS011;6325;49.540;8.364;2022-12-10T04:30:10;12.83;;;11.53;;
12519;SDS011;6325;49.540;8.364;2022-12-10T04:32:38;12.88;;;11.57;;
12519;SDS011;6325;49.540;8.364;2022-12-10T04:35:05;13.00;;;11.70;;
12519;SDS011;6325;49.540;8.364;2022-12-10T04:37:34;12.82;;;11.52;;
12519;SDS011;6325;49.540;8.364;2022-12-10T04:40:02;12.73;;;11.43;;
12519;SDS011;6325;49.540;8.364;2022-12-10T04:42:29;12.93;;;11.65;;
12519;SDS011;6325;49.540;8.364;2022-12-10T04:47:26;13.40;;;12.00;;
12519;SDS011;6325;49.540;8.364;2022-12-10T04:49:53;12.55;;;11.35;;
12519;SDS011;6325;49.540;8.364;2022-12-10T04:52:20;12.07;;;10.88;;
12519;SDS011;6325;49.540;8.364;2022-12-10T04:54:48;12.02;;;10.90;;
12519;SDS011;6325;49.540;8.364;2022-12-10T04:57:15;12.43;;;11.13;;
12519;SDS011;6325;49.540;8.364;2022-12-10T04:59:42;11.90;;;10.70;;
12519;SDS011;6325;49.540;8.364;2022-12-10T05:02:09;12.00;;;10.80;;
12519;SDS011;6325;49.540;8.364;2022-12-10T05:04:36;11.73;;;10.63;;
12519;SDS011;6325;49.540;8.364;2022-12-10T05:07:03;12.00;;;10.75;;
12519;SDS011;6325;49.540;8.364;2022-12-10T05:09:30;11.30;;;10.20;;
12519;SDS011;6325;49.540;8.364;2022-12-10T05:11:58;11.23;;;10.13;;
12519;SDS011;6325;49.540;8.364;2022-12-10T05:14:25;11.35;;;10.20;;
12519;SDS011;6325;49.540;8.364;2022-12-10T05:16:52;11.65;;;10.45;;
12519;SDS011;6325;49.540;8.364;2022-12-10T05:19:19;10.98;;;9.88;;
12519;SDS011;6325;49.540;8.364;2022-12-10T05:21:48;10.85;;;9.77;;
12519;SDS011;6325;49.540;8.364;2022-12-10T05:24:32;10.20;;;9.20;;
12519;SDS011;6325;49.540;8.364;2022-12-10T05:27:00;10.73;;;9.73;;
12519;SDS011;6325;49.540;8.364;2022-12-10T05:29:27;11.73;;;10.52;;
12519;SDS011;6325;49.540;8.364;2022-12-10T05:31:55;10.80;;;9.80;;
12519;SDS011;6325;49.540;8.364;2022-12-10T05:34:22;11.27;;;10.18;;
12519;SDS011;6325;49.540;8.364;2022-12-10T05:36:48;11.15;;;10.05;;
12519;SDS011;6325;49.540;8.364;2022-12-10T05:39:15;9.95;;;9.00;;
12519;SDS011;6325;49.540;8.364;2022-12-10T05:41:42;11.57;;;10.38;;
12519;SDS011;6325;49.540;8.364;2022-12-10T05:44:12;11.43;;;10.23;;
12519;SDS011;6325;49.540;8.364;2022-12-10T05:46:39;11.70;;;10.50;;
12519;SDS011;6325;49.540;8.364;2022-12-10T05:49:06;11.57;;;10.38;;
12519;SDS011;6325;49.540;8.364;2022-12-10T05:51:34;11.45;;;10.35;;
12519;SDS011;6325;49.540;8.364;2022-12-10T05:54:04;11.38;;;10.27;;
12519;SDS011;6325;49.540;8.364;2022-12-10T05:56:34;10.20;;;9.27;;
12519;SDS011;6325;49.540;8.364;2022-12-10T05:59:02;10.80;;;9.80;;
12519;SDS011;6325;49.540;8.364;2022-12-10T06:01:32;10.90;;;9.88;;
12519;SDS011;6325;49.540;8.364;2022-12-10T06:04:01;9.90;;;9.00;;
12519;SDS011;6325;49.540;8.364;2022-12-10T06:06:31;9.98;;;9.05;;
12519;SDS011;6325;49.540;8.364;2022-12-10T06:08:59;10.63;;;9.63;;
12519;SDS011;6325;49.540;8.364;2022-12-10T06:11:27;9.80;;;8.90;;
12519;SDS011;6325;49.540;8.364;2022-12-10T06:13:54;10.70;;;9.70;;
12519;SDS011;6325;49.540;8.364;2022-12-10T06:16:22;10.40;;;9.40;;
12519;SDS011;6325;49.540;8.364;2022-12-10T06:18:52;10.20;;;9.20;;
12519;SDS011;6325;49.540;8.364;2022-12-10T06:21:19;9.25;;;8.45;;
12519;SDS011;6325;49.540;8.364;2022-12-10T06:23:49;10.02;;;9.13;;
12519;SDS011;6325;49.540;8.364;2022-12-10T06:26:19;9.40;;;8.50;;
12519;SDS011;6325;49.540;8.364;2022-12-10T06:28:47;9.32;;;8.43;;
12519;SDS011;6325;49.540;8.364;2022-12-10T06:31:15;9.00;;;8.10;;
12519;SDS011;6325;49.540;8.364;2022-12-10T06:33:43;9.23;;;8.32;;
12519;SDS011;6325;49.540;8.364;2022-12-10T06:36:12;9.13;;;8.33;;
12519;SDS011;6325;49.540;8.364;2022-12-10T06:38:40;8.88;;;8.07;;
12519;SDS011;6325;49.540;8.364;2022-12-10T06:41:07;9.85;;;8.95;;
12519;SDS011;6325;49.540;8.364;2022-12-10T06:43:35;8.80;;;8.00;;
12519;SDS011;6325;49.540;8.364;2022-12-10T06:46:03;9.60;;;8.70;;
12519;SDS011;6325;49.540;8.364;2022-12-10T06:48:31;9.52;;;8.63;;
12519;SDS011;6325;49.540;8.364;2022-12-10T06:50:58;9.15;;;8.35;;
12519;SDS011;6325;49.540;8.364;2022-12-10T06:53:26;9.48;;;8.57;;
12519;SDS011;6325;49.540;8.364;2022-12-10T06:55:53;9.43;;;8.53;;
12519;SDS011;6325;49.540;8.364;2022-12-10T06:58:23;8.85;;;8.05;;
12519;SDS011;6325;49.540;8.364;2022-12-10T07:00:50;9.15;;;8.35;;
12519;SDS011;6325;49.540;8.364;2022-12-10T07:03:17;8.65;;;7.85;;
12519;SDS011;6325;49.540;8.364;2022-12-10T07:05:43;9.50;;;8.50;;
12519;SDS011;6325;49.540;8.364;2022-12-10T07:08:10;9.68;;;8.77;;
12519;SDS011;6325;49.540;8.364;2022-12-10T07:10:39;9.80;;;8.90;;
12519;SDS011;6325;49.540;8.364;2022-12-10T07:13:06;8.98;;;8.10;;
12519;SDS011;6325;49.540;8.364;2022-12-10T07:15:32;10.02;;;9.13;;
12519;SDS011;6325;49.540;8.364;2022-12-10T07:17:59;9.77;;;8.88;;
12519;SDS011;6325;49.540;8.364;2022-12-10T07:20:29;9.40;;;8.57;;
12519;SDS011;6325;49.540;8.364;2022-12-10T07:22:56;10.00;;;9.00;;
12519;SDS011;6325;49.540;8.364;2022-12-10T07:25:23;9.77;;;8.80;;
12519;SDS011;6325;49.540;8.364;2022-12-10T07:27:51;9.77;;;8.77;;
12519;SDS011;6325;49.540;8.364;2022-12-10T07:30:18;9.52;;;8.63;;
12519;SDS011;6325;49.540;8.364;2022-12-10T07:32:46;9.57;;;8.75;;
12519;SDS011;6325;49.540;8.364;2022-12-10T07:35:13;9.50;;;8.60;;
12519;SDS011;6325;49.540;8.364;2022-12-10T07:37:40;9.10;;;8.30;;
12519;SDS011;6325;49.540;8.364;2022-12-10T07:40:07;8.70;;;7.93;;
12519;SDS011;6325;49.540;8.364;2022-12-10T07:42:35;8.95;;;8.05;;
12519;SDS011;6325;49.540;8.364;2022-12-10T07:45:03;9.52;;;8.63;;
12519;SDS011;6325;49.540;8.364;2022-12-10T07:47:34;8.60;;;7.80;;
12519;SDS011;6325;49.540;8.364;2022-12-10T07:50:01;9.20;;;8.30;;
12519;SDS011;6325;49.540;8.364;2022-12-10T07:52:28;8.80;;;8.00;;
12519;SDS011;6325;49.540;8.364;2022-12-10T07:54:55;9.80;;;8.90;;
12519;SDS011;6325;49.540;8.364;2022-12-10T07:57:22;9.93;;;9.03;;
12519;SDS011;6325;49.540;8.364;2022-12-10T07:59:49;9.25;;;8.45;;
12519;SDS011;6325;49.540;8.364;2022-12-10T08:02:17;9.25;;;8.35;;
12519;SDS011;6325;49.540;8.364;2022-12-10T08:04:44;8.82;;;8.02;;
12519;SDS011;6325;49.540;8.364;2022-12-10T08:07:11;9.48;;;8.65;;
12519;SDS011;6325;49.540;8.364;2022-12-10T08:09:38;9.07;;;8.25;;
12519;SDS011;6325;49.540;8.364;2022-12-10T08:12:05;9.38;;;8.48;;
12519;SDS011;6325;49.540;8.364;2022-12-10T08:14:32;8.80;;;8.00;;
12519;SDS011;6325;49.540;8.364;2022-12-10T08:16:59;9.30;;;8.45;;
12519;SDS011;6325;49.540;8.364;2022-12-10T08:19:27;9.15;;;8.25;;
12519;SDS011;6325;49.540;8.364;2022-12-10T08:21:54;8.90;;;8.05;;
12519;SDS011;6325;49.540;8.364;2022-12-10T08:24:21;9.23;;;8.35;;
12519;SDS011;6325;49.540;8.364;2022-12-10T08:26:47;8.80;;;8.00;;
12519;SDS011;6325;49.540;8.364;2022-12-10T08:29:14;8.98;;;8.13;;
12519;SDS011;6325;49.540;8.364;2022-12-10T08:31:41;8.70;;;7.90;;
12519;SDS011;6325;49.540;8.364;2022-12-10T08:34:10;7.88;;;7.18;;
12519;SDS011;6325;49.540;8.364;2022-12-10T08:36:40;8.05;;;7.30;;
12519;SDS011;6325;49.540;8.364;2022-12-10T08:39:08;7.68;;;6.97;;
12519;SDS011;6325;49.540;8.364;2022-12-10T08:41:40;8.13;;;7.33;;
12519;SDS011;6325;49.540;8.364;2022-12-10T08:44:07;7.90;;;7.20;;
12519;SDS011;6325;49.540;8.364;2022-12-10T08:46:33;8.10;;;7.40;;
12519;SDS011;6325;49.540;8.364;2022-12-10T08:49:00;7.25;;;6.65;;
12519;SDS011;6325;49.540;8.364;2022-12-10T08:51:27;7.20;;;6.57;;
12519;SDS011;6325;49.540;8.364;2022-12-10T08:53:57;7.78;;;7.07;;
12519;SDS011;6325;49.540;8.364;2022-12-10T08:56:24;8.07;;;7.38;;
12519;SDS011;6325;49.540;8.364;2022-12-10T08:58:51;8.13;;;7.40;;
12519;SDS011;6325;49.540;8.364;2022-12-10T09:01:18;7.50;;;6.90;;
12519;SDS011;6325;49.540;8.364;2022-12-10T09:03:45;7.88;;;7.18;;
12519;SDS011;6325;49.540;8.364;2022-12-10T09:06:13;8.52;;;7.68;;
12519;SDS011;6325;49.540;8.364;2022-12-10T09:08:42;7.75;;;7.05;;
12519;SDS011;6325;49.540;8.364;2022-12-10T09:11:10;8.15;;;7.45;;
12519;SDS011;6325;49.540;8.364;2022-12-10T09:13:39;7.78;;;7.07;;
12519;SDS011;6325;49.540;8.364;2022-12-10T09:16:06;7.25;;;6.65;;
12519;SDS011;6325;49.540;8.364;2022-12-10T09:18:33;7.78;;;7.07;;
12519;SDS011;6325;49.540;8.364;2022-12-10T09:21:03;7.53;;;6.85;;
12519;SDS011;6325;49.540;8.364;2022-12-10T09:23:31;7.80;;;7.05;;
12519;SDS011;6325;49.540;8.364;2022-12-10T09:25:58;7.43;;;6.82;;
12519;SDS011;6325;49.540;8.364;2022-12-10T09:28:26;7.57;;;6.90;;
12519;SDS011;6325;49.540;8.364;2022-12-10T09:30:56;7.88;;;7.18;;
12519;SDS011;6325;49.540;8.364;2022-12-10T09:33:23;7.80;;;7.10;;
12519;SDS011;6325;49.540;8.364;2022-12-10T09:35:50;7.73;;;7.03;;
12519;SDS011;6325;49.540;8.364;2022-12-10T09:38:17;7.47;;;6.88;;
12519;SDS011;6325;49.540;8.364;2022-12-10T09:40:45;7.37;;;6.77;;
12519;SDS011;6325;49.540;8.364;2022-12-10T09:43:18;7.70;;;7.00;;
12519;SDS011;6325;49.540;8.364;2022-12-10T09:45:54;7.25;;;6.65;;
12519;SDS011;6325;49.540;8.364;2022-12-10T09:48:32;7.50;;;6.87;;
12519;SDS011;6325;49.540;8.364;2022-12-10T09:51:07;7.68;;;6.97;;
12519;SDS011;6325;49.540;8.364;2022-12-10T09:53:38;7.40;;;6.70;;
12519;SDS011;6325;49.540;8.364;2022-12-10T09:56:09;7.25;;;6.65;;
12519;SDS011;6325;49.540;8.364;2022-12-10T09:58:44;7.20;;;6.60;;
12519;SDS011;6325;49.540;8.364;2022-12-10T10:01:13;6.97;;;6.38;;
12519;SDS011;6325;49.540;8.364;2022-12-10T10:03:43;7.40;;;6.78;;
12519;SDS011;6325;49.540;8.364;2022-12-10T10:06:10;6.93;;;6.32;;
12519;SDS011;6325;49.540;8.364;2022-12-10T10:08:39;8.00;;;7.20;;
12519;SDS011;6325;49.540;8.364;2022-12-10T10:11:10;7.53;;;6.78;;
12519;SDS011;6325;49.540;8.364;2022-12-10T10:13:40;7.82;;;7.10;;
12519;SDS011;6325;49.540;8.364;2022-12-10T10:16:19;7.57;;;6.85;;
12519;SDS011;6325;49.540;8.364;2022-12-10T10:18:50;7.50;;;6.80;;
12519;SDS011;6325;49.540;8.364;2022-12-10T10:21:22;8.52;;;7.72;;
12519;SDS011;6325;49.540;8.364;2022-12-10T10:23:51;7.10;;;6.50;;
12519;SDS011;6325;49.540;8.364;2022-12-10T10:26:19;7.03;;;6.40;;
12519;SDS011;6325;49.540;8.364;2022-12-10T10:28:46;7.47;;;6.85;;
12519;SDS011;6325;49.540;8.364;2022-12-10T10:31:20;6.60;;;6.10;;
12519;SDS011;6325;49.540;8.364;2022-12-10T10:33:50;6.53;;;5.93;;
12519;SDS011;6325;49.540;8.364;2022-12-10T10:36:25;7.32;;;6.63;;
12519;SDS011;6325;49.540;8.364;2022-12-10T10:38:54;7.10;;;6.50;;
12519;SDS011;6325;49.540;8.364;2022-12-10T10:41:22;6.85;;;6.25;;
12519;SDS011;6325;49.540;8.364;2022-12-10T10:43:51;7.47;;;6.78;;
12519;SDS011;6325;49.540;8.364;2022-12-10T10:46:26;7.40;;;6.80;;
12519;SDS011;6325;49.540;8.364;2022-12-10T10:48:54;7.60;;;6.90;;
12519;SDS011;6325;49.540;8.364;2022-12-10T10:51:41;7.10;;;6.50;;
12519;SDS011;6325;49.540;8.364;2022-12-10T10:54:10;7.22;;;6.63;;
12519;SDS011;6325;49.540;8.364;2022-12-10T10:56:38;7.67;;;6.97;;
12519;SDS011;6325;49.540;8.364;2022-12-10T10:59:19;6.78;;;6.18;;
12519;SDS011;6325;49.540;8.364;2022-12-10T11:02:01;7.15;;;6.55;;
12519;SDS011;6325;49.540;8.364;2022-12-10T11:04:31;8.18;;;7.38;;
12519;SDS011;6325;49.540;8.364;2022-12-10T11:07:05;7.30;;;6.70;;
12519;SDS011;6325;49.540;8.364;2022-12-10T11:09:43;7.30;;;6.70;;
12519;SDS011;6325;49.540;8.364;2022-12-10T11:12:20;6.53;;;6.03;;
12519;SDS011;6325;49.540;8.364;2022-12-10T11:14:56;7.38;;;6.68;;
12519;SDS011;6325;49.540;8.364;2022-12-10T11:17:24;6.40;;;5.90;;
12519;SDS011;6325;49.540;8.364;2022-12-10T11:19:54;7.32;;;6.72;;
12519;SDS011;6325;49.540;8.364;2022-12-10T11:22:23;7.80;;;7.10;;
12519;SDS011;6325;49.540;8.364;2022-12-10T11:24:51;6.30;;;5.80;;
12519;SDS011;6325;49.540;8.364;2022-12-10T11:27:22;6.40;;;5.90;;
12519;SDS011;6325;49.540;8.364;2022-12-10T11:30:00;6.80;;;6.25;;
12519;SDS011;6325;49.540;8.364;2022-12-10T11:32:34;7.10;;;6.50;;
12519;SDS011;6325;49.540;8.364;2022-12-10T11:35:14;7.20;;;6.60;;
12519;SDS011;6325;49.540;8.364;2022-12-10T11:37:47;7.20;;;6.60;;
12519;SDS011;6325;49.540;8.364;2022-12-10T11:40:28;7.85;;;7.15;;
12519;SDS011;6325;49.540;8.364;2022-12-10T11:43:04;7.45;;;6.75;;
12519;SDS011;6325;49.540;8.364;2022-12-10T11:45:45;6.63;;;6.13;;
12519;SDS011;6325;49.540;8.364;2022-12-10T11:48:29;7.30;;;6.70;;
12519;SDS011;6325;49.540;8.364;2022-12-10T11:51:08;7.40;;;6.80;;
12519;SDS011;6325;49.540;8.364;2022-12-10T11:53:45;7.82;;;7.13;;
12519;SDS011;6325;49.540;8.364;2022-12-10T11:56:20;7.53;;;6.83;;
12519;SDS011;6325;49.540;8.364;2022-12-10T11:58:57;7.47;;;6.80;;
12519;SDS011;6325;49.540;8.364;2022-12-10T12:01:41;6.70;;;6.13;;
12519;SDS011;6325;49.540;8.364;2022-12-10T12:04:38;7.20;;;6.55;;
12519;SDS011;6325;49.540;8.364;2022-12-10T12:07:15;7.40;;;6.80;;
12519;SDS011;6325;49.540;8.364;2022-12-10T12:09:59;6.85;;;6.25;;
12519;SDS011;6325;49.540;8.364;2022-12-10T12:12:46;7.00;;;6.40;;
12519;SDS011;6325;49.540;8.364;2022-12-10T12:15:18;7.55;;;6.95;;
12519;SDS011;6325;49.540;8.364;2022-12-10T12:17:50;8.70;;;7.90;;
12519;SDS011;6325;49.540;8.364;2022-12-10T12:20:22;8.25;;;7.53;;
12519;SDS011;6325;49.540;8.364;2022-12-10T12:22:53;16.53;;;14.00;;
12519;SDS011;6325;49.540;8.364;2022-12-10T12:25:25;11.93;;;10.73;;
12519;SDS011;6325;49.540;8.364;2022-12-10T12:27:55;11.38;;;10.27;;
12519;SDS011;6325;49.540;8.364;2022-12-10T12:30:28;10.27;;;9.27;;
12519;SDS011;6325;49.540;8.364;2022-12-10T12:33:00;11.88;;;10.68;;
12519;SDS011;6325;49.540;8.364;2022-12-10T12:35:36;10.63;;;9.63;;
12519;SDS011;6325;49.540;8.364;2022-12-10T12:38:06;9.07;;;8.27;;
12519;SDS011;6325;49.540;8.364;2022-12-10T12:40:46;9.07;;;8.38;;
12519;SDS011;6325;49.540;8.364;2022-12-10T12:43:19;9.30;;;8.50;;
12519;SDS011;6325;49.540;8.364;2022-12-10T12:45:51;8.55;;;7.85;;
12519;SDS011;6325;49.540;8.364;2022-12-10T12:48:22;8.23;;;7.53;;
12519;SDS011;6325;49.540;8.364;2022-12-10T12:50:55;11.15;;;10.15;;
12519;SDS011;6325;49.540;8.364;2022-12-10T12:53:26;9.93;;;9.02;;
12519;SDS011;6325;49.540;8.364;2022-12-10T12:55:55;10.32;;;9.43;;
12519;SDS011;6325;49.540;8.364;2022-12-10T12:58:31;10.10;;;9.20;;
12519;SDS011;6325;49.540;8.364;2022-12-10T13:01:06;8.88;;;8.13;;
12519;SDS011;6325;49.540;8.364;2022-12-10T13:03:46;14.63;;;13.10;;
12519;SDS011;6325;49.540;8.364;2022-12-10T13:06:19;10.40;;;9.40;;
12519;SDS011;6325;49.540;8.364;2022-12-10T13:08:49;9.18;;;8.38;;
12519;SDS011;6325;49.540;8.364;2022-12-10T13:11:30;9.27;;;8.48;;
12519;SDS011;6325;49.540;8.364;2022-12-10T13:14:14;9.60;;;8.80;;
12519;SDS011;6325;49.540;8.364;2022-12-10T13:16:59;9.50;;;8.70;;
12519;SDS011;6325;49.540;8.364;2022-12-10T13:19:33;9.27;;;8.47;;
12519;SDS011;6325;49.540;8.364;2022-12-10T13:22:05;9.20;;;8.40;;
12519;SDS011;6325;49.540;8.364;2022-12-10T13:24:59;9.70;;;8.80;;
12519;SDS011;6325;49.540;8.364;2022-12-10T13:27:37;9.40;;;8.60;;
12519;SDS011;6325;49.540;8.364;2022-12-10T13:30:24;11.50;;;10.50;;
12519;SDS011;6325;49.540;8.364;2022-12-10T13:33:15;9.32;;;8.52;;
12519;SDS011;6325;49.540;8.364;2022-12-10T13:35:55;9.05;;;8.25;;
12519;SDS011;6325;49.540;8.364;2022-12-10T13:38:26;8.70;;;7.90;;
12519;SDS011;6325;49.540;8.364;2022-12-10T13:40:58;8.35;;;7.57;;
12519;SDS011;6325;49.540;8.364;2022-12-10T13:43:51;34.50;;;21.67;;
12519;SDS011;6325;49.540;8.364;2022-12-10T13:46:54;52.53;;;28.67;;
12519;SDS011;6325;49.540;8.364;2022-12-10T13:49:24;41.83;;;25.17;;
12519;SDS011;6325;49.540;8.364;2022-12-10T13:51:57;16.42;;;12.18;;
12519;SDS011;6325;49.540;8.364;2022-12-10T13:54:46;7.95;;;7.25;;
12519;SDS011;6325;49.540;8.364;2022-12-10T14:00:29;11.82;;;10.82;;
12519;SDS011;6325;49.540;8.364;2022-12-10T14:06:13;10.00;;;9.10;;
12519;SDS011;6325;49.540;8.364;2022-12-10T14:08:46;12.40;;;11.40;;
12519;SDS011;6325;49.540;8.364;2022-12-10T14:11:24;10.57;;;9.68;;
12519;SDS011;6325;49.540;8.364;2022-12-10T14:13:54;14.20;;;13.02;;
12519;SDS011;6325;49.540;8.364;2022-12-10T14:16:24;10.75;;;9.85;;
12519;SDS011;6325;49.540;8.364;2022-12-10T14:18:56;8.93;;;8.23;;
12519;SDS011;6325;49.540;8.364;2022-12-10T14:21:26;7.40;;;6.80;;
12519;SDS011;6325;49.540;8.364;2022-12-10T14:23:57;7.65;;;7.00;;
12519;SDS011;6325;49.540;8.364;2022-12-10T14:26:27;8.00;;;7.30;;
12519;SDS011;6325;49.540;8.364;2022-12-10T14:28:56;7.45;;;6.85;;
12519;SDS011;6325;49.540;8.364;2022-12-10T14:31:26;7.10;;;6.50;;
12519;SDS011;6325;49.540;8.364;2022-12-10T14:33:59;7.50;;;6.90;;
12519;SDS011;6325;49.540;8.364;2022-12-10T14:36:28;8.82;;;8.02;;
12519;SDS011;6325;49.540;8.364;2022-12-10T14:38:57;7.28;;;6.68;;
12519;SDS011;6325;49.540;8.364;2022-12-10T14:41:27;7.28;;;6.68;;
12519;SDS011;6325;49.540;8.364;2022-12-10T14:43:57;6.97;;;6.38;;
12519;SDS011;6325;49.540;8.364;2022-12-10T14:46:28;6.82;;;6.22;;
12519;SDS011;6325;49.540;8.364;2022-12-10T14:48:56;7.13;;;6.53;;
12519;SDS011;6325;49.540;8.364;2022-12-10T14:51:24;7.05;;;6.50;;
12519;SDS011;6325;49.540;8.364;2022-12-10T14:53:57;7.05;;;6.45;;
12519;SDS011;6325;49.540;8.364;2022-12-10T14:56:27;7.00;;;6.40;;
12519;SDS011;6325;49.540;8.364;2022-12-10T14:58:57;7.73;;;7.03;;
12519;SDS011;6325;49.540;8.364;2022-12-10T15:01:30;7.28;;;6.68;;
12519;SDS011;6325;49.540;8.364;2022-12-10T15:04:01;7.47;;;6.78;;
12519;SDS011;6325;49.540;8.364;2022-12-10T15:06:33;9.07;;;8.17;;
12519;SDS011;6325;49.540;8.364;2022-12-10T15:09:02;8.25;;;7.55;;
12519;SDS011;6325;49.540;8.364;2022-12-10T15:11:31;8.60;;;7.80;;
12519;SDS011;6325;49.540;8.364;2022-12-10T15:13:58;12.40;;;11.27;;
12519;SDS011;6325;49.540;8.364;2022-12-10T15:16:28;11.75;;;10.75;;
12519;SDS011;6325;49.540;8.364;2022-12-10T15:19:06;11.02;;;10.05;;